الصفحة الرئيسية
METAR-TAF:

METAR-TAF

مطار :

مطار ليبرفيل الدولي

ليبرفيل, الغابون

دائرة عرض: 00-27N, خط طول: 009-25E, ارتفاع: 12 متر

مراقبة الطقس الحالي

تاريخ ووقت الإصدار 26 دقيقة قبل الساعة 22:30UTC
ريح 7 عقدة من الجنوب الغربي
درجة الحرارة 26°درجة مئوية
الرطوبة 89%
ضغط 1013 hPa
الرؤية 10 كم أو أكثر
غيوم متفرقة على ارتفاع 1200 قدم

METAR: FOOL 242230Z 22007KT 9999 SCT012 26/24 Q1013 NOSIG

زمن: 23:56 (22:56 UTC)

توقعات

تاريخ ووقت الإصدار 5ساعات و 56 دقيقة قبل الساعة 17:00UTC
التوقعات صالحة من24 الساعة 18 UTC إلى 25 الساعة 24 UTC
ريح 7 عقدة من الجنوب/الجنوب الغربي
الرؤية 10 كم أو أكثر
غيوم متفرقة على ارتفاع 1100 قدم
غيوم مفككة على ارتفاع 3000 قدم
نظرية الاحتمالات 30% :
مؤقت
من 25 الساعة 02 UTC إلى 25 الساعة 09 UTC
الرؤية: 4000 متر
غيوم مفككة على ارتفاع 800 قدم
ملبد بالغيوم على ارتفاع 2300 قدم
مطر, رذاذ
مؤقت
من 25 الساعة 15 UTC إلى 25 الساعة 18 UTC
غيوم متفرقة على ارتفاع 1200 قدم
غيوم قليلة على ارتفاع 2000 قدم, مزنة ركامية.
عاصفة رعدية

TAF: FOOL 241700Z 2418/2524 20007KT 9999 SCT011 BKN030 PROB30 TEMPO 2502/2509 4000 RADZ BKN008 OVC023 TEMPO 2515/2518 TS SCT012 FEW020CB

أرصاد الطقس والتوقعات من أكثر من 4000 مطار (تقارير الطقس للمطار METAR والتنبؤ بالطقس بالمطارTAF).

المحطات المتاحة هي النقط الصفراء والحمراء على الخريطة.

حرك المؤشر فوق النقطة لمعرفة اسم المحطة.

ثم انقر لمعرفة أرصاد وتوقعات الطقس.

لتغيير الخارطة: اضغط على الأزرار الخضراء مع رمز الصليب الأسود للتكبير. على الزر الأخضر مع شرطة للتصغير، أو على الأسهم الخضراء للخرائط المجاورة.


METAR-TAF: